Arivat, Canada
Current Conditions -  °F | °C
As of 11:00 AM on Wednesday 26 Nov 2014 (Local Time) from CYEK Reporting Station
Scattered Clouds Scattered Clouds  
Wind Chill: -30°   Ceiling: Unl
Heat Index: -9°   Visibility: 15mi
Dew Point: -17°   Wind: 13mph
Humidity: 71%   Direction: 270°W
Pressure: 30.1"   Gusts: NA
Location:  61.11°N, 94.06°W
Report Text: CYEK 261600Z 27011KT 15SM SCT300 M23/M27 A3010 RMK CS4 SLP196
Loading
Personal Weather Stations






























Interactive Weather Map New forecast layout! Learn more

10-Day Weather Forecast

Advertisements
Track Severe Weather on mobile